Terminal Aerodrome Forecast
Issued by NWS

Home | Current Version | Previous Version | Text Only | Print | Product List | Glossary On
Versions: 1 2 3 4 5 6 7 8 9 10 11 12 13 14 15 16 17 18 19 20 21 22 23
000
FTUS42 KFFC 181122
TAFFTY
TAF
KFTY 181122Z 1812/1912 31003KT P6SM SCT150 BKN250
     FM181500 34004KT P6SM BKN060
     FM190100 31003KT P6SM SCT080 BKN150
     FM190900 00000KT P6SM SCT150=

USA.gov is the U.S. government's official web portal to all federal, state and local government web resources and services.